Latest Weather Observations for Grafton Airport

IDN60801

Issued at 1:35 pm EST Monday 22 September 2014 (issued every 30 minutes, with the page automatically refreshed every 10 minutes)

About weather observations | Map of weather stations | Latest weather observations for NSW | Other Formats
Station Details ID: 058161 Name: GRAFTON AIRPORT AWS Lat: -29.76 Lon: 153.03 Height: 25.09 m
Data from the previous 72 hours. | See also: Recent months for locations in New South Wales
Date/Time
EST
Temp
°C
App
Temp
°C
Dew
Point
Rel
Hum
%
Delta-T
°C
Wind Press
QNH
hPa
Press
MSL
hPa
Rain
since 9 am
mm
Dir
 
Spd
km/h
Gust
km/h
Spd
kts
Gust
kts
22/01:30pm 21.1 17.4 9.4 47 6.2 ESE 19 32 10 17 1028.0 1028.0 0.0
22/01:00pm 21.5 17.6 9.4 46 6.4 SE 20 28 11 15 1028.1 1028.1 0.0
22/12:30pm 20.8 17.5 9.4 48 6.1 ESE 17 26 9 14 1028.3 1028.3 0.0
22/12:00pm 22.4 19.0 9.2 43 7.0 ESE 17 24 9 13 1028.5 1028.5 0.0
22/11:30am 21.9 18.0 10.7 49 6.2 SSE 22 28 12 15 1028.9 1028.9 0.0
22/11:00am 21.7 18.4 10.8 50 6.0 ESE 19 22 10 12 1029.5 1029.5 0.0
22/10:30am 21.2 18.8 11.5 54 5.4 SSE 15 22 8 12 1029.9 1029.9 0.0
22/10:00am 20.2 16.9 10.9 55 5.0 SSE 19 28 10 15 1030.0 1030.0 0.0
22/09:30am 20.0 18.2 12.0 60 4.5 SSE 13 19 7 10 1030.0 1030.0 0.0
22/09:00am 19.2 17.6 11.7 62 4.1 S 11 20 6 11 1030.0 1030.0 0.0
22/08:30am 18.4 16.9 13.0 71 3.0 S 13 22 7 12 1030.2 1030.2 0.0
22/08:00am 16.2 15.3 12.6 79 2.0 SW 9 11 5 6 1030.1 1030.1 0.0
22/07:30am 14.6 13.9 11.9 84 1.5 SSW 7 9 4 5 1029.9 1029.9 0.0
22/07:00am 13.5 12.6 11.4 87 1.1 S 7 11 4 6 1029.5 1029.5 0.0
22/06:30am 12.2 10.8 10.8 91 0.7 SSW 9 11 5 6 1028.9 1028.9 0.0
22/06:00am 10.7 9.5 9.6 93 0.5 SSW 6 7 3 4 1028.6 1028.6 0.0
22/05:30am 10.9 9.1 9.5 91 0.7 SSW 9 11 5 6 1028.2 1028.2 0.0
22/05:00am 11.3 9.6 9.9 91 0.7 SSW 9 11 5 6 1028.2 1028.2 0.0
22/04:30am 10.9 9.2 9.8 93 0.6 SSW 9 13 5 7 1027.9 1027.9 0.0
22/04:00am 10.0 8.4 8.8 92 0.6 SW 7 9 4 5 1027.8 1027.8 0.0
22/03:30am 10.2 7.9 9.1 93 0.5 S 11 13 6 7 1027.4 1027.4 0.0
22/03:00am 10.5 8.3 9.4 93 0.5 SSW 11 15 6 8 1027.7 1027.7 0.0
22/02:30am 9.9 7.9 8.7 92 0.6 SSW 9 11 5 6 1028.1 1028.1 0.0
22/02:00am 9.9 8.5 8.7 92 0.6 SW 6 7 3 4 1028.0 1028.0 0.0
22/01:30am 10.8 8.6 9.4 91 0.7 S 11 15 6 8 1028.3 1028.3 0.0
22/01:00am 10.3 8.1 9.2 93 0.5 SSW 11 13 6 7 1028.6 1028.6 0.0
22/12:30am 10.7 8.8 9.1 90 0.8 SSW 9 11 5 6 1028.8 1028.8 0.0
22/12:00am 11.2 9.9 9.9 92 0.7 SSW 7 9 4 5 1028.8 1028.8 0.0
 
Date/Time
EST
Temp
°C
App
Temp
°C
Dew
Point
Rel
Hum
%
Delta-T
°C
Wind Press
QNH
hPa
Press
MSL
hPa
Rain
since 9 am
mm
Dir
 
Spd
km/h
Gust
km/h
Spd
kts
Gust
kts
21/11:30pm 10.9 9.5 9.7 92 0.6 SSW 7 9 4 5 1029.1 1029.1 0.0
21/11:00pm 11.6 10.4 10.3 92 0.7 S 7 9 4 5 1029.0 1029.0 0.0
21/10:30pm 12.0 11.1 10.7 92 0.7 SSW 6 9 3 5 1029.3 1029.3 0.0
21/10:00pm 11.9 12.0 10.1 89 0.9 CALM 0 0 0 0 1029.6 1029.6 0.0
21/09:30pm 11.6 10.4 9.5 87 1.1 SW 6 9 3 5 1029.6 1029.6 0.0
21/09:00pm 13.0 11.9 10.5 85 1.3 SSW 7 9 4 5 1029.6 1029.6 0.0
21/08:30pm 12.8 11.6 10.3 85 1.3 SSW 7 9 4 5 1029.3 1029.3 0.0
21/08:00pm 12.3 12.0 10.2 87 1.1 SW 2 7 1 4 1029.1 1029.1 0.0
21/07:30pm 13.0 13.1 10.0 82 1.5 CALM 0 0 0 0 1028.6 1028.6 0.0
21/07:00pm 13.7 12.9 9.7 77 2.0 SSW 4 6 2 3 1028.0 1028.0 0.0
21/06:30pm 14.7 13.4 9.9 73 2.5 S 7 9 4 5 1027.4 1027.4 0.0
21/06:00pm 15.5 13.5 10.1 70 2.8 S 11 13 6 7 1027.2 1027.2 0.0
21/05:30pm 16.3 14.3 10.2 67 3.2 S 11 15 6 8 1027.0 1027.0 0.0
21/05:00pm 17.3 14.6 10.2 63 3.7 SSE 15 22 8 12 1026.8 1026.8 0.0
21/04:30pm 18.1 14.7 10.7 62 4.0 SSE 19 26 10 14 1027.0 1027.0 0.0
21/04:00pm 18.2 15.2 10.8 62 4.0 SE 17 22 9 12 1026.7 1026.7 0.0
21/03:30pm 18.5 15.1 11.1 62 4.0 SSE 20 32 11 17 1026.6 1026.6 0.0
21/03:00pm 18.2 13.8 10.3 60 4.2 SE 24 39 13 21 1026.4 1026.4 0.0
21/02:30pm 20.8 16.0 10.3 51 5.7 SSE 26 33 14 18 1026.0 1026.0 0.0
21/02:00pm 20.8 16.2 9.7 49 5.9 S 24 39 13 21 1026.1 1026.1 0.0
21/01:30pm 20.4 15.8 9.6 50 5.8 SE 24 37 13 20 1026.3 1026.3 0.0
21/01:00pm 19.9 16.2 9.5 51 5.5 SSE 19 33 10 18 1026.6 1026.6 0.0
21/12:30pm 20.0 16.1 9.3 50 5.7 SE 20 30 11 16 1026.8 1026.8 0.0
21/12:00pm 20.9 17.1 9.8 49 5.9 SSE 20 28 11 15 1026.4 1026.4 0.0
21/11:30am 21.3 18.7 9.2 46 6.4 SSE 13 20 7 11 1026.8 1026.8 0.0
21/11:00am 19.6 17.1 9.8 53 5.2 S 13 19 7 10 1027.3 1027.3 0.0
21/10:30am 20.0 17.3 9.0 49 5.8 SE 13 20 7 11 1028.0 1028.0 0.0
21/10:00am 20.2 16.9 9.5 50 5.7 S 17 24 9 13 1028.0 1028.0 0.0
21/09:30am 19.4 18.5 9.3 52 5.3 E 4 9 2 5 1028.3 1028.3 0.0
21/09:00am 17.3 16.8 9.2 59 4.2 SW 2 7 1 4 1028.3 1028.3 0.0
21/08:30am 15.3 14.8 9.4 68 3.0 NNW 2 6 1 3 1028.1 1028.1 0.0
21/08:00am 14.8 13.6 9.6 71 2.7 W 6 7 3 4 1028.3 1028.3 0.0
21/07:30am 12.6 12.0 8.9 78 1.9 W 2 6 1 3 1027.9 1027.9 0.0
21/07:00am 11.1 9.6 9.0 87 1.0 SSW 7 9 4 5 1027.5 1027.5 0.0
21/06:30am 8.8 7.2 7.9 94 0.4 S 6 9 3 5 1027.0 1027.0 0.0
21/06:00am 7.9 6.0 6.8 93 0.5 SSW 6 7 3 4 1026.4 1026.4 0.0
21/05:30am 8.1 6.3 7.0 93 0.5 S 6 9 3 5 1026.4 1026.4 0.0
21/05:00am 8.1 5.7 7.0 93 0.5 S 9 11 5 6 1026.0 1026.0 0.0
21/04:30am 8.3 5.5 6.9 91 0.7 S 11 13 6 7 1025.6 1025.6 0.0
21/04:00am 8.5 6.1 7.1 91 0.7 SSW 9 11 5 6 1025.5 1025.5 0.0
21/03:30am 8.8 6.5 7.3 90 0.7 SSW 9 11 5 6 1025.4 1025.4 0.0
21/03:00am 8.9 6.5 7.2 89 0.8 SSW 9 11 5 6 1025.5 1025.5 0.0
21/02:30am 9.1 6.7 7.1 87 0.9 SSW 9 11 5 6 1025.8 1025.8 0.0
21/02:00am 9.6 7.2 7.2 85 1.1 S 9 9 5 5 1026.1 1026.1 0.0
21/01:30am 9.7 7.3 7.1 84 1.2 S 9 11 5 6 1026.2 1026.2 0.0
21/01:00am 10.3 7.9 7.2 81 1.5 S 9 11 5 6 1026.4 1026.4 0.0
21/12:30am 10.9 8.6 7.4 79 1.7 S 9 11 5 6 1026.4 1026.4 0.0
21/12:00am 10.6 8.5 6.7 77 1.8 SSW 7 11 4 6 1026.2 1026.2 0.0
 
Date/Time
EST
Temp
°C
App
Temp
°C
Dew
Point
Rel
Hum
%
Delta-T
°C
Wind Press
QNH
hPa
Press
MSL
hPa
Rain
since 9 am
mm
Dir
 
Spd
km/h
Gust
km/h
Spd
kts
Gust
kts
20/11:30pm 10.5 8.4 6.6 77 1.8 SSW 7 9 4 5 1026.2 1026.2 0.0
20/11:00pm 11.1 9.1 6.3 72 2.2 SW 6 7 3 4 1026.3 1026.3 0.0
20/10:30pm 10.7 8.7 7.0 78 1.8 SSW 7 9 4 5 1026.3 1026.3 0.0
20/10:00pm 9.7 7.7 7.0 83 1.3 SW 7 9 4 5 1026.2 1026.2 0.0
20/09:30pm 10.7 8.4 7.4 80 1.6 S 9 9 5 5 1025.8 1025.8 0.0
20/09:00pm 10.9 8.5 7.0 77 1.8 S 9 9 5 5 1025.6 1025.6 0.0
20/08:30pm 11.9 9.5 7.0 72 2.3 S 9 9 5 5 1025.4 1025.4 0.0
20/08:00pm 12.0 10.1 6.7 70 2.5 S 6 7 3 4 1025.1 1025.1 0.0
20/07:30pm 12.9 11.2 7.4 69 2.7 SSW 6 7 3 4 1024.6 1024.6 0.0
20/07:00pm 13.5 11.5 7.1 65 3.1 S 7 9 4 5 1024.3 1024.3 0.0
20/06:30pm 15.3 13.2 6.6 56 4.2 S 7 9 4 5 1023.9 1023.9 0.0
20/06:00pm 16.1 13.3 6.8 54 4.6 SSE 11 15 6 8 1023.3 1023.3 0.0
20/05:30pm 17.2 13.8 6.1 48 5.4 SE 13 20 7 11 1022.8 1022.8 0.0
20/05:00pm 17.9 14.3 5.2 43 6.1 SE 13 20 7 11 1022.2 1022.2 0.0
20/04:30pm 19.3 14.7 3.5 35 7.4 ESE 17 24 9 13 1021.7 1021.7 0.0
20/04:00pm 19.9 15.4 5.9 40 6.9 SE 19 26 10 14 1021.2 1021.2 0.0
20/03:30pm 20.2 16.2 6.5 41 6.9 SE 17 24 9 13 1021.1 1021.1 0.0
20/03:00pm 20.8 17.4 7.8 43 6.7 SE 15 22 8 12 1020.6 1020.6 0.0
20/02:30pm 19.7 17.0 9.0 50 5.6 ESE 13 17 7 9 1020.6 1020.6 0.0
20/02:00pm 19.8 16.9 8.2 47 6.0 ESE 13 22 7 12 1020.7 1020.7 0.0
20/01:30pm 20.3 17.6 8.9 48 6.0 S 13 20 7 11 1020.9 1020.9 0.0
20/01:00pm 20.9 17.8 8.9 46 6.3 ESE 15 17 8 9 1021.0 1021.0 0.0
20/12:30pm 19.8 17.1 8.8 49 5.8 SE 13 20 7 11 1021.4 1021.4 0.0
20/12:00pm 20.3 18.5 8.0 45 6.3 ENE 7 19 4 10 1021.7 1021.7 0.0
20/11:30am 21.4 20.0 8.7 44 6.7 SE 6 9 3 5 1022.1 1022.1 0.0
20/11:00am 21.4 20.4 10.3 49 6.0 ENE 6 15 3 8 1022.6 1022.6 0.0
20/10:30am 20.3 18.6 7.7 44 6.5 E 6 11 3 6 1022.8 1022.8 0.0
20/10:00am 19.5 18.2 9.1 51 5.5 NE 6 9 3 5 1023.0 1023.0 0.0
20/09:30am 18.0 16.6 9.6 58 4.4 N 7 11 4 6 1023.3 1023.3 0.0
20/09:00am 18.5 18.4 12.0 66 3.6 WSW 4 11 2 6 1023.4 1023.4 8.2
20/08:30am 16.6 16.6 11.3 71 2.9 W 2 7 1 4 1023.2 1023.2 8.2
20/08:00am 16.1 15.8 11.5 74 2.5 W 4 9 2 5 1023.1 1023.1 8.2
20/07:30am 15.1 14.4 12.1 82 1.6 SW 7 9 4 5 1022.8 1022.8 8.2
20/07:00am 13.7 13.0 12.1 90 0.9 SSW 7 11 4 6 1022.6 1022.6 8.2
20/06:30am 12.0 12.1 11.4 96 0.3 W 2 7 1 4 1022.2 1022.2 8.2
20/06:00am 11.4 10.6 11.1 98 0.2 SSW 6 6 3 3 1021.8 1021.8 8.2
20/05:30am 11.1 11.4 10.8 98 0.2 CALM 0 0 0 0 1021.6 1021.6 8.2
20/05:00am 11.2 11.4 10.6 96 0.3 CALM 0 0 0 0 1021.1 1021.1 8.2
20/04:30am 11.4 10.5 10.8 96 0.3 SSW 6 7 3 4 1020.6 1020.6 8.2
20/04:00am 11.5 10.4 10.7 95 0.4 SSW 7 9 4 5 1020.4 1020.4 8.2
20/03:30am 12.4 11.6 11.1 92 0.7 S 6 7 3 4 1020.6 1020.6 8.2
20/03:00am 12.5 11.6 11.2 92 0.7 WSW 7 9 4 5 1020.5 1020.5 8.2
20/02:30am 13.0 12.4 11.6 91 0.7 WSW 6 7 3 4 1020.3 1020.3 8.2
20/02:00am 13.4 12.3 11.8 90 0.9 S 9 13 5 7 1020.0 1020.0 8.2
20/01:30am 13.4 11.8 11.5 88 1.0 SE 11 17 6 9 1020.0 1020.0 8.2
20/01:00am 13.6 11.6 11.5 87 1.1 SSE 13 17 7 9 1020.1 1020.1 8.2
20/12:30am 13.5 10.8 11.6 88 1.0 S 17 20 9 11 1020.2 1020.2 8.2
20/12:00am 12.7 11.1 11.6 93 0.6 S 11 13 6 7 1020.5 1020.5 8.2
 
Date/Time
EST
Temp
°C
App
Temp
°C
Dew
Point
Rel
Hum
%
Delta-T
°C
Wind Press
QNH
hPa
Press
MSL
hPa
Rain
since 9 am
mm
Dir
 
Spd
km/h
Gust
km/h
Spd
kts
Gust
kts
19/11:30pm 12.7 11.4 11.3 91 0.7 SSW 9 13 5 7 1020.3 1020.3 8.2
19/11:00pm 13.8 12.0 12.2 90 0.9 S 13 17 7 9 1020.4 1020.4 8.2
19/10:52pm 13.9 11.0 12.3 90 0.9 ESE 19 28 10 15 1020.3 1020.3 8.0
19/10:30pm 13.9 13.0 12.6 92 0.7 W 9 13 5 7 1021.1 1021.1 7.0
19/10:04pm 14.2 12.5 12.4 89 1.0 SW 13 19 7 10 1020.7 1020.7 1.2
19/10:00pm 14.4 12.3 12.3 87 1.1 SSW 15 19 8 10 1020.5 1020.5 0.6
19/09:30pm 15.3 13.5 10.9 75 2.3 SSW 11 13 6 7 1020.4 1020.4 0.0
19/09:00pm 14.2 12.1 11.0 81 1.7 S 13 17 7 9 1019.8 1019.8 0.0
19/08:30pm 14.1 12.9 9.7 75 2.3 SW 6 7 3 4 1020.4 1020.4 0.0
19/08:00pm 15.3 13.0 10.5 73 2.5 S 13 15 7 8 1020.2 1020.2 0.0
19/07:30pm 14.7 13.5 10.3 75 2.3 SSW 7 9 4 5 1020.2 1020.2 0.0
19/07:00pm 15.5 13.6 10.5 72 2.6 S 11 13 6 7 1019.6 1019.6 0.0
19/06:30pm 16.3 14.6 9.7 65 3.4 SSE 9 11 5 6 1019.1 1019.1 0.0
19/06:00pm 16.9 15.6 9.8 63 3.7 SE 7 9 4 5 1018.7 1018.7 0.0
19/05:30pm 18.1 16.2 9.2 56 4.7 E 9 11 5 6 1018.2 1018.2 0.0
19/05:00pm 19.2 17.2 8.8 51 5.4 E 9 15 5 8 1017.7 1017.7 0.0
19/04:30pm 20.2 16.8 9.2 49 5.8 E 17 24 9 13 1017.3 1017.2 0.0
19/04:00pm 21.3 18.1 9.9 48 6.1 ENE 17 26 9 14 1017.0 1016.9 0.0
19/03:30pm 21.7 18.4 9.6 46 6.5 NE 17 20 9 11 1016.8 1016.7 0.0
19/03:00pm 22.1 19.2 10.9 49 6.2 NE 17 24 9 13 1016.8 1016.7 0.0
19/02:30pm 22.2 18.2 10.4 47 6.5 ENE 22 32 12 17 1016.9 1016.8 0.0
19/02:00pm 21.6 19.0 3.3 30 8.7 NNE 6 11 3 6 1017.3 1017.2 0.0

Other Formats:

Comma delimited format used in spreadsheet applications
http://www.bom.gov.au/fwo/IDN60801/IDN60801.95570.axf

JavaScript Object Notation format (JSON) in row-major order
http://www.bom.gov.au/fwo/IDN60801/IDN60801.95570.json